createdAt,value
2022-11-02T00:01:55.846Z,2.90
2022-11-02T00:04:24.236Z,2.45
2022-11-02T00:06:52.484Z,3.17
2022-11-02T00:09:20.741Z,3.28
2022-11-02T00:11:48.902Z,3.17
2022-11-02T00:14:19.733Z,1.88
2022-11-02T00:16:48.167Z,1.52
2022-11-02T00:19:16.521Z,1.75
2022-11-02T00:21:44.981Z,1.23
2022-11-02T00:24:14.000Z,2.90
2022-11-02T00:26:44.468Z,3.35
2022-11-02T00:29:12.738Z,1.80
2022-11-02T00:31:42.333Z,2.38
2022-11-02T00:34:10.764Z,2.45
2022-11-02T00:36:39.149Z,2.28
2022-11-02T00:39:07.495Z,1.80
2022-11-02T00:41:35.896Z,2.80
2022-11-02T00:44:04.669Z,1.98
2022-11-02T00:46:39.715Z,2.63
2022-11-02T00:49:09.956Z,1.83
2022-11-02T00:51:38.245Z,1.48
2022-11-02T00:54:06.581Z,2.88
2022-11-02T00:56:34.798Z,2.30
2022-11-02T00:59:03.022Z,1.80
2022-11-02T01:01:31.412Z,2.28
2022-11-02T01:03:59.891Z,1.60
2022-11-02T01:06:29.560Z,1.90
2022-11-02T01:08:57.765Z,1.98
2022-11-02T01:11:27.148Z,2.28
2022-11-02T01:13:55.480Z,2.40
2022-11-02T01:16:23.892Z,1.60
2022-11-02T01:18:54.282Z,2.67
2022-11-02T01:21:23.093Z,2.72
2022-11-02T01:23:53.368Z,2.30
2022-11-02T01:26:23.031Z,2.63
2022-11-02T01:28:51.229Z,1.20
2022-11-02T01:31:19.414Z,2.53
2022-11-02T01:33:47.918Z,1.05
2022-11-02T01:38:56.563Z,1.85
2022-11-02T01:41:25.924Z,1.27
2022-11-02T01:43:59.000Z,2.05
2022-11-02T01:46:38.612Z,1.70
2022-11-02T01:49:13.069Z,1.85
2022-11-02T01:51:47.741Z,2.58
2022-11-02T01:54:22.672Z,1.63
2022-11-02T01:56:56.606Z,1.33
2022-11-02T01:59:32.098Z,1.90
2022-11-02T02:02:00.639Z,1.92
2022-11-02T02:04:30.217Z,2.58
2022-11-02T02:07:00.381Z,2.13
2022-11-02T02:09:31.147Z,2.30
2022-11-02T02:11:59.390Z,1.48
2022-11-02T02:14:27.691Z,2.63
2022-11-02T02:17:20.638Z,1.80
2022-11-02T02:19:58.995Z,1.48
2022-11-02T02:23:22.501Z,2.45
2022-11-02T02:26:27.796Z,1.75
2022-11-02T02:29:04.763Z,1.23
2022-11-02T02:31:41.444Z,1.35
2022-11-02T02:34:19.777Z,2.08
2022-11-02T02:36:54.114Z,1.98
2022-11-02T02:39:35.966Z,1.85
2022-11-02T02:42:15.666Z,2.72
2022-11-02T02:44:55.436Z,3.45
2022-11-02T02:47:29.101Z,1.33
2022-11-02T02:50:07.997Z,1.33
2022-11-02T02:52:38.711Z,1.67
2022-11-02T02:55:14.952Z,2.00
2022-11-02T02:57:43.300Z,2.97
2022-11-02T03:00:17.839Z,1.92
2022-11-02T03:03:01.198Z,1.70
2022-11-02T03:05:33.870Z,1.80
2022-11-02T03:08:09.574Z,1.77
2022-11-02T03:10:47.841Z,1.50
2022-11-02T03:13:48.698Z,1.63
2022-11-02T03:16:38.554Z,2.33
2022-11-02T03:19:21.256Z,1.20
2022-11-02T03:22:00.648Z,1.88
2022-11-02T03:24:36.714Z,2.80
2022-11-02T03:27:15.752Z,1.83
2022-11-02T03:29:55.149Z,1.55
2022-11-02T03:32:33.609Z,1.95
2022-11-02T03:35:07.946Z,2.97
2022-11-02T03:37:42.846Z,1.50
2022-11-02T03:40:19.361Z,3.38
2022-11-02T03:42:50.857Z,3.13
2022-11-02T03:45:23.362Z,1.33
2022-11-02T03:48:00.672Z,2.78
2022-11-02T03:50:28.998Z,1.40
2022-11-02T03:53:06.397Z,2.05
2022-11-02T03:55:41.125Z,2.13
2022-11-02T03:58:12.884Z,1.83
2022-11-02T04:00:51.320Z,2.42
2022-11-02T04:03:24.185Z,2.88
2022-11-02T04:05:52.772Z,2.40
2022-11-02T04:08:31.596Z,1.50
2022-11-02T04:11:17.206Z,2.78
2022-11-02T04:14:02.799Z,1.80
2022-11-02T04:16:31.424Z,2.10
2022-11-02T04:19:18.741Z,2.10
2022-11-02T04:22:00.761Z,1.40
2022-11-02T04:24:46.483Z,0.98
2022-11-02T04:27:19.701Z,1.75
2022-11-02T04:29:49.187Z,3.17
2022-11-02T04:32:37.853Z,1.90
2022-11-02T04:35:08.786Z,1.45
2022-11-02T04:38:12.700Z,2.42
2022-11-02T04:40:40.955Z,1.88
2022-11-02T04:43:09.254Z,4.32
2022-11-02T04:45:37.605Z,1.60
2022-11-02T04:48:09.194Z,2.30
2022-11-02T04:50:38.996Z,1.67
2022-11-02T04:53:08.292Z,1.90
2022-11-02T04:55:36.543Z,2.60
2022-11-02T04:58:04.869Z,2.33
2022-11-02T05:00:33.497Z,2.40
2022-11-02T05:03:01.670Z,1.50
2022-11-02T05:05:29.908Z,3.72
2022-11-02T05:07:59.734Z,1.52
2022-11-02T05:10:27.977Z,1.45
2022-11-02T05:12:58.799Z,1.55
2022-11-02T05:15:27.613Z,2.33
2022-11-02T05:17:56.059Z,3.08
2022-11-02T05:20:24.317Z,2.67
2022-11-02T05:22:52.471Z,1.95
2022-11-02T05:25:22.048Z,1.65
2022-11-02T05:27:50.215Z,2.20
2022-11-02T05:30:18.608Z,1.70
2022-11-02T05:32:46.746Z,1.98
2022-11-02T05:35:15.222Z,2.33
2022-11-02T05:37:43.429Z,2.30
2022-11-02T05:40:14.045Z,2.03
2022-11-02T05:42:43.766Z,2.72
2022-11-02T05:45:12.165Z,1.40
2022-11-02T05:47:40.620Z,2.90
2022-11-02T05:50:11.151Z,1.83
2022-11-02T05:52:39.491Z,1.88
2022-11-02T05:55:09.217Z,2.05
2022-11-02T05:57:37.370Z,2.03
2022-11-02T06:00:09.546Z,2.75
2022-11-02T06:02:38.038Z,2.47
2022-11-02T06:05:07.670Z,1.85
2022-11-02T06:07:36.062Z,2.28
2022-11-02T06:10:04.745Z,2.13
2022-11-02T06:12:33.123Z,3.35
2022-11-02T06:15:01.289Z,1.92
2022-11-02T06:17:38.104Z,3.15
2022-11-02T06:20:08.360Z,2.35
2022-11-02T06:22:41.180Z,2.15
2022-11-02T06:25:11.044Z,2.63
2022-11-02T06:27:44.931Z,2.05
2022-11-02T06:30:14.475Z,2.88
2022-11-02T06:32:48.577Z,2.95
2022-11-02T06:35:17.778Z,1.90
2022-11-02T06:37:46.750Z,2.63
2022-11-02T06:40:16.332Z,4.68
2022-11-02T06:45:32.891Z,1.95
2022-11-02T06:48:02.907Z,2.03
2022-11-02T06:50:31.131Z,2.10
2022-11-02T06:52:59.324Z,2.22
2022-11-02T06:55:27.468Z,2.47
2022-11-02T06:57:55.875Z,2.40
2022-11-02T07:00:24.374Z,1.63
2022-11-02T07:03:03.827Z,3.10
2022-11-02T07:05:32.849Z,4.63
2022-11-02T07:08:01.228Z,3.28
2022-11-02T07:10:30.267Z,2.83
2022-11-02T07:13:02.417Z,2.63
2022-11-02T07:15:31.130Z,2.83
2022-11-02T07:17:59.305Z,2.70
2022-11-02T07:20:30.286Z,2.30
2022-11-02T07:23:01.544Z,3.17
2022-11-02T07:25:32.790Z,3.10
2022-11-02T07:28:02.682Z,2.35
2022-11-02T07:30:32.870Z,3.35
2022-11-02T07:33:01.315Z,2.88
2022-11-02T07:35:31.143Z,2.95
2022-11-02T07:38:01.358Z,2.80
2022-11-02T07:40:32.144Z,3.13
2022-11-02T07:43:01.501Z,3.58
2022-11-02T07:45:30.192Z,3.30
2022-11-02T07:47:58.307Z,4.43
2022-11-02T07:50:28.500Z,3.60
2022-11-02T07:53:00.653Z,2.78
2022-11-02T07:55:31.844Z,3.50
2022-11-02T07:58:02.385Z,3.45
2022-11-02T08:00:35.612Z,5.07
2022-11-02T08:03:05.700Z,2.65
2022-11-02T08:05:37.021Z,2.15
2022-11-02T08:08:09.538Z,2.17
2022-11-02T08:10:40.488Z,4.03
2022-11-02T08:13:09.819Z,4.60
2022-11-02T08:15:38.586Z,2.15
2022-11-02T08:18:10.573Z,2.70
2022-11-02T08:20:38.682Z,2.00
2022-11-02T08:23:08.566Z,2.70
2022-11-02T08:25:37.110Z,2.08
2022-11-02T08:28:07.536Z,1.85
2022-11-02T08:30:36.253Z,2.35
2022-11-02T08:33:06.852Z,2.50
2022-11-02T08:35:37.564Z,1.88
2022-11-02T08:38:08.296Z,5.07
2022-11-02T08:40:37.716Z,6.43
2022-11-02T08:43:09.204Z,3.05
2022-11-02T08:46:13.876Z,2.00
2022-11-02T08:48:28.615Z,2.85
2022-11-02T08:50:56.961Z,3.08
2022-11-02T08:53:26.515Z,3.00
2022-11-02T08:55:54.754Z,2.97
2022-11-02T08:58:22.888Z,1.33
2022-11-02T09:00:54.031Z,1.50
2022-11-02T09:03:26.961Z,1.90
2022-11-02T09:06:00.155Z,2.00
2022-11-02T09:08:33.381Z,2.53
2022-11-02T09:11:04.363Z,2.70
2022-11-02T09:13:32.694Z,2.28
2022-11-02T09:16:02.781Z,1.70
2022-11-02T09:18:31.762Z,1.80
2022-11-02T09:21:03.714Z,2.55
2022-11-02T09:23:34.120Z,2.85
2022-11-02T09:26:02.605Z,2.00
2022-11-02T09:28:31.107Z,3.20
2022-11-02T09:30:59.561Z,2.38
2022-11-02T09:33:29.795Z,2.03
2022-11-02T09:36:03.367Z,2.38
2022-11-02T09:38:33.547Z,1.42
2022-11-02T09:41:15.895Z,1.42
2022-11-02T09:44:00.165Z,2.38
2022-11-02T09:46:35.064Z,1.60
2022-11-02T09:49:12.467Z,2.17
2022-11-02T09:51:46.191Z,2.00
2022-11-02T09:54:21.323Z,2.83
2022-11-02T09:56:52.705Z,2.15
2022-11-02T09:59:23.973Z,1.63
2022-11-02T10:02:03.965Z,2.20
2022-11-02T10:04:52.410Z,1.92
2022-11-02T10:07:39.937Z,1.98
2022-11-02T10:10:19.054Z,2.42
2022-11-02T10:13:04.563Z,1.35
2022-11-02T10:15:41.165Z,1.30
2022-11-02T10:18:18.499Z,2.00
2022-11-02T10:20:52.415Z,2.47
2022-11-02T10:23:30.505Z,1.60
2022-11-02T10:26:02.113Z,1.75
2022-11-02T10:28:34.914Z,2.30
2022-11-02T10:31:04.265Z,1.70
2022-11-02T10:33:32.977Z,2.30
2022-11-02T10:36:23.108Z,1.90
2022-11-02T10:39:10.547Z,1.85
2022-11-02T10:42:05.226Z,1.55
2022-11-02T10:44:58.536Z,1.75
2022-11-02T10:47:34.853Z,1.25
2022-11-02T10:50:32.761Z,2.15
2022-11-02T10:56:02.760Z,1.75
2022-11-02T10:59:06.138Z,2.42
2022-11-02T11:01:34.529Z,1.92
2022-11-02T11:04:05.804Z,1.60
2022-11-02T11:06:40.174Z,1.08
2022-11-02T11:09:17.956Z,2.25
2022-11-02T11:11:56.996Z,1.73
2022-11-02T11:20:34.580Z,1.95
2022-11-02T11:23:19.476Z,1.42
2022-11-02T11:25:58.203Z,1.45
2022-11-02T11:28:31.528Z,2.60
2022-11-02T11:31:10.162Z,1.15
2022-11-02T11:33:49.806Z,2.03
2022-11-02T11:36:31.315Z,1.70
2022-11-02T11:39:05.183Z,1.40
2022-11-02T11:41:38.882Z,1.98
2022-11-02T11:44:19.059Z,1.27
2022-11-02T11:46:56.901Z,1.63
2022-11-02T11:52:29.976Z,1.40
2022-11-02T11:55:01.939Z,1.88
2022-11-02T11:57:33.732Z,1.67
2022-11-02T12:00:04.992Z,1.23
2022-11-02T12:02:43.993Z,1.63
2022-11-02T12:05:17.280Z,1.08
2022-11-02T12:08:16.927Z,1.75
2022-11-02T12:11:19.014Z,1.38
2022-11-02T12:14:06.245Z,1.70
2022-11-02T12:17:01.102Z,1.33
2022-11-02T12:19:49.783Z,1.35
2022-11-02T12:22:35.772Z,1.25
2022-11-02T12:25:37.542Z,1.27
2022-11-02T12:28:24.042Z,1.38
2022-11-02T12:31:11.281Z,0.90
2022-11-02T12:34:10.497Z,1.15
2022-11-02T12:40:15.666Z,1.42
2022-11-02T12:42:56.531Z,1.60
2022-11-02T12:45:48.159Z,1.90
2022-11-02T12:48:31.150Z,1.25
2022-11-02T12:51:05.957Z,1.00
2022-11-02T12:53:47.613Z,1.50
2022-11-02T12:56:22.904Z,1.95
2022-11-02T12:58:51.255Z,2.13
2022-11-02T13:01:28.615Z,2.65
2022-11-02T13:04:10.322Z,0.95
2022-11-02T13:06:45.280Z,1.50
2022-11-02T13:09:24.570Z,1.88
2022-11-02T13:12:03.531Z,1.13
2022-11-02T13:14:41.749Z,1.33
2022-11-02T13:17:19.544Z,1.33
2022-11-02T13:19:55.167Z,1.60
2022-11-02T13:22:34.241Z,3.47
2022-11-02T13:25:18.460Z,1.75
2022-11-02T13:27:54.398Z,1.90
2022-11-02T13:30:23.072Z,2.57
2022-11-02T13:33:00.787Z,1.90
2022-11-02T13:35:36.192Z,1.58
2022-11-02T13:38:20.883Z,1.50
2022-11-02T13:41:06.171Z,2.60
2022-11-02T13:44:16.622Z,1.52
2022-11-02T13:47:39.211Z,1.73
2022-11-02T13:50:16.909Z,2.10
2022-11-02T13:52:53.091Z,1.58
2022-11-02T13:55:26.837Z,1.58
2022-11-02T13:58:03.097Z,1.70
2022-11-02T14:00:45.215Z,1.45
2022-11-02T14:03:22.068Z,2.28
2022-11-02T14:08:35.986Z,1.80
2022-11-02T14:11:24.612Z,1.55
2022-11-02T14:14:24.913Z,1.70
2022-11-02T14:17:18.193Z,1.52
2022-11-02T14:20:07.090Z,2.05
2022-11-02T14:22:36.683Z,1.30
2022-11-02T14:25:26.731Z,1.27
2022-11-02T14:27:57.263Z,2.13
2022-11-02T14:30:46.787Z,1.40
2022-11-02T14:33:44.824Z,1.30
2022-11-02T14:39:18.005Z,1.88
2022-11-02T14:42:35.517Z,2.42
2022-11-02T14:45:29.013Z,1.23
2022-11-02T14:48:18.815Z,1.63
2022-11-02T14:51:13.684Z,1.35
2022-11-02T14:53:43.549Z,2.25
2022-11-02T14:56:12.541Z,1.80
2022-11-02T14:58:52.825Z,2.08
2022-11-02T15:01:21.820Z,1.35
2022-11-02T15:03:53.747Z,1.42
2022-11-02T15:06:27.513Z,1.52
2022-11-02T15:09:00.531Z,1.75
2022-11-02T15:11:51.285Z,1.38
2022-11-02T15:14:57.100Z,1.70
2022-11-02T15:18:17.511Z,1.80
2022-11-02T15:20:47.685Z,2.22
2022-11-02T15:23:31.120Z,2.03
2022-11-02T15:26:02.462Z,1.42
2022-11-02T15:28:36.009Z,1.60
2022-11-02T15:31:16.218Z,1.40
2022-11-02T15:33:48.581Z,2.13
2022-11-02T15:36:31.161Z,2.20
2022-11-02T15:39:03.585Z,1.55
2022-11-02T15:41:44.798Z,2.10
2022-11-02T15:45:26.692Z,2.45
2022-11-02T15:48:18.550Z,2.20
2022-11-02T15:51:00.940Z,1.75
2022-11-02T15:53:52.185Z,2.70
2022-11-02T15:56:47.590Z,2.00
2022-11-02T16:00:10.087Z,2.45
2022-11-02T16:02:45.598Z,2.08
2022-11-02T16:05:24.570Z,1.65
2022-11-02T16:08:10.412Z,1.67
2022-11-02T16:14:25.124Z,2.20
2022-11-02T16:17:01.933Z,3.08
2022-11-02T16:19:30.480Z,2.60
2022-11-02T16:22:05.829Z,2.78
2022-11-02T16:24:35.880Z,3.60
2022-11-02T16:30:13.839Z,2.67
2022-11-02T16:32:43.815Z,2.23
2022-11-02T16:35:17.025Z,2.60
2022-11-02T16:37:53.547Z,1.38
2022-11-02T16:40:28.522Z,2.17
2022-11-02T16:42:59.874Z,2.78
2022-11-02T16:45:43.367Z,3.35
2022-11-02T16:48:28.656Z,3.83
2022-11-02T16:51:22.519Z,2.78
2022-11-02T16:53:54.872Z,2.17
2022-11-02T16:56:33.211Z,1.92
2022-11-02T16:59:09.483Z,1.75
2022-11-02T17:01:43.922Z,1.97
2022-11-02T17:04:27.440Z,2.05
2022-11-02T17:07:15.423Z,2.63
2022-11-02T17:09:55.515Z,4.63
2022-11-02T17:12:40.563Z,1.65
2022-11-02T17:15:22.290Z,1.73
2022-11-02T17:17:55.314Z,3.00
2022-11-02T17:20:28.455Z,2.72
2022-11-02T17:23:02.215Z,2.85
2022-11-02T17:25:38.679Z,2.20
2022-11-02T17:28:45.150Z,1.95
2022-11-02T17:31:38.073Z,3.72
2022-11-02T17:34:16.394Z,3.17
2022-11-02T17:36:50.436Z,3.03
2022-11-02T17:39:22.191Z,4.35
2022-11-02T17:42:15.381Z,4.20
2022-11-02T17:44:51.154Z,3.90
2022-11-02T17:47:22.554Z,3.97
2022-11-02T17:49:51.884Z,4.88
2022-11-02T17:52:21.048Z,2.63
2022-11-02T17:54:49.362Z,2.75
2022-11-02T17:57:19.341Z,2.53
2022-11-02T17:59:48.416Z,2.25
2022-11-02T18:02:17.826Z,2.05
2022-11-02T18:04:47.679Z,2.95
2022-11-02T18:07:16.946Z,3.40
2022-11-02T18:09:56.356Z,4.40
2022-11-02T18:12:25.385Z,2.65
2022-11-02T18:14:54.159Z,2.22
2022-11-02T18:17:23.169Z,2.47
2022-11-02T18:20:08.043Z,2.25
2022-11-02T18:22:37.900Z,2.63
2022-11-02T18:25:11.049Z,3.15
2022-11-02T18:27:44.076Z,2.97
2022-11-02T18:30:16.842Z,3.85
2022-11-02T18:32:49.326Z,3.17
2022-11-02T18:35:24.498Z,5.15
2022-11-02T18:38:10.918Z,3.28
2022-11-02T18:40:45.457Z,3.72
2022-11-02T18:43:19.483Z,3.92
2022-11-02T18:46:04.494Z,3.97
2022-11-02T18:48:34.670Z,4.30
2022-11-02T18:51:17.249Z,3.25
2022-11-02T18:53:47.202Z,3.25
2022-11-02T18:56:16.212Z,4.05
2022-11-02T19:01:47.449Z,3.03
2022-11-02T19:04:30.787Z,5.25
2022-11-02T19:10:19.443Z,5.18
2022-11-02T19:12:49.004Z,3.90
2022-11-02T19:15:17.610Z,3.20
2022-11-02T19:18:00.937Z,3.97
2022-11-02T19:20:32.926Z,5.70
2022-11-02T19:23:39.656Z,4.00
2022-11-02T19:26:10.107Z,3.88
2022-11-02T19:28:39.936Z,3.97
2022-11-02T19:31:10.806Z,6.03
2022-11-02T19:33:42.186Z,5.25
2022-11-02T19:36:14.819Z,5.47
2022-11-02T19:38:45.299Z,4.53
2022-11-02T19:41:17.237Z,4.63
2022-11-02T19:43:51.616Z,4.68
2022-11-02T19:46:35.240Z,5.88
2022-11-02T19:49:06.455Z,5.57
2022-11-02T19:51:56.310Z,4.95
2022-11-02T19:54:37.882Z,5.28
2022-11-02T19:57:14.187Z,5.50
2022-11-02T19:59:43.639Z,5.90
2022-11-02T20:02:15.606Z,5.88
2022-11-02T20:04:46.710Z,4.90
2022-11-02T20:07:15.295Z,5.95
2022-11-02T20:09:45.191Z,3.30
2022-11-02T20:12:17.485Z,3.78
2022-11-02T20:14:47.965Z,4.28
2022-11-02T20:17:31.167Z,3.45
2022-11-02T20:20:03.297Z,4.63
2022-11-02T20:22:35.396Z,5.05
2022-11-02T20:25:07.863Z,5.05
2022-11-02T20:27:37.188Z,5.15
2022-11-02T20:30:07.513Z,4.40
2022-11-02T20:32:35.898Z,5.47
2022-11-02T20:35:11.017Z,4.63
2022-11-02T20:37:41.679Z,4.68
2022-11-02T20:40:15.976Z,4.45
2022-11-02T20:42:45.803Z,4.57
2022-11-02T20:45:17.406Z,5.03
2022-11-02T20:47:45.996Z,4.22
2022-11-02T20:50:16.636Z,4.50
2022-11-02T20:52:48.002Z,5.85
2022-11-02T20:55:19.078Z,5.65
2022-11-02T20:57:50.110Z,4.38
2022-11-02T21:00:24.807Z,4.45
2022-11-02T21:02:53.363Z,5.68
2022-11-02T21:05:23.664Z,4.80
2022-11-02T21:07:53.476Z,4.93
2022-11-02T21:10:23.376Z,4.70
2022-11-02T21:13:09.172Z,3.47
2022-11-02T21:15:38.142Z,5.30
2022-11-02T21:18:07.209Z,4.75
2022-11-02T21:20:35.684Z,4.30
2022-11-02T21:23:06.113Z,4.03
2022-11-02T21:25:36.724Z,5.45
2022-11-02T21:28:10.441Z,3.72
2022-11-02T21:30:38.862Z,4.30
2022-11-02T21:33:07.377Z,4.05
2022-11-02T21:35:36.359Z,4.63
2022-11-02T21:38:07.011Z,5.30
2022-11-02T21:40:38.497Z,5.07
2022-11-02T21:43:07.390Z,5.85
2022-11-02T21:45:38.070Z,4.55
2022-11-02T21:48:06.806Z,4.20
2022-11-02T21:50:35.329Z,5.00
2022-11-02T21:53:03.778Z,5.93
2022-11-02T21:55:32.293Z,4.90
2022-11-02T21:58:03.733Z,5.10
2022-11-02T22:00:45.963Z,5.68
2022-11-02T22:03:15.349Z,6.20
2022-11-02T22:05:56.551Z,4.38
2022-11-02T22:08:40.426Z,4.93
2022-11-02T22:11:11.418Z,5.65
2022-11-02T22:13:51.122Z,6.30
2022-11-02T22:16:25.389Z,5.20
2022-11-02T22:18:56.458Z,6.40
2022-11-02T22:21:29.226Z,6.45
2022-11-02T22:23:58.444Z,7.55
2022-11-02T22:26:30.735Z,8.55
2022-11-02T22:29:01.206Z,8.90
2022-11-02T22:31:32.055Z,10.05
2022-11-02T22:34:08.047Z,10.90
2022-11-02T22:36:39.068Z,9.07
2022-11-02T22:39:08.585Z,10.02
2022-11-02T22:41:39.390Z,9.60
2022-11-02T22:44:11.099Z,12.85
2022-11-02T22:46:41.601Z,9.23
2022-11-02T22:49:11.937Z,9.90
2022-11-02T22:51:42.164Z,10.68
2022-11-02T22:54:14.861Z,10.80
2022-11-02T22:56:43.713Z,9.40
2022-11-02T22:59:14.237Z,11.55
2022-11-02T23:01:43.377Z,11.52
2022-11-02T23:04:12.961Z,9.82
2022-11-02T23:06:41.343Z,7.70
2022-11-02T23:09:12.275Z,8.75
2022-11-02T23:11:40.624Z,8.15
2022-11-02T23:14:12.981Z,9.20
2022-11-02T23:16:43.261Z,8.63
2022-11-02T23:19:25.019Z,7.03
2022-11-02T23:22:09.940Z,7.13
2022-11-02T23:24:55.882Z,8.75
2022-11-02T23:27:24.525Z,9.52
2022-11-02T23:30:11.699Z,8.75
2022-11-02T23:32:40.128Z,9.20
2022-11-02T23:35:27.048Z,9.65
2022-11-02T23:38:04.419Z,8.75
2022-11-02T23:40:33.553Z,10.18
2022-11-02T23:43:01.830Z,9.20
2022-11-02T23:45:31.252Z,7.97
2022-11-02T23:48:00.823Z,8.45
2022-11-02T23:50:50.851Z,8.35
2022-11-02T23:53:39.782Z,8.45
2022-11-02T23:56:32.888Z,8.35
2022-11-02T23:59:07.243Z,7.50
